Главная страница
METAR-TAF:

METAR-TAF

Аэропорты :

Kramfors, Швеция

широта: 63-03N, долгота: 017-46E, высота над уровнем моря: 10 м

Текущие метеонаблюдения

Эта сводка был подготовлена 31 минут назад, в 20:50 UTC
Ветер 6 Узел от южный
Температура 10°C
Влажность 87%
Давление 1011 hPa
Видимость 10 км и более

METAR: ESNK 132050Z AUTO 17006KT 9999 NCD 10/08 Q1011

Время: 23:21 (21:21 UTC)

Прогноз

Эта сводка был подготовлена 6 часа и 51 минут назад, в 14:30 UTC
Прогноз действительный с 13-го 15 UTC до 13-го 18 UTC
Ветер 10 Узел от южный
Видимость 10 км и более
Нет облачности ниже 1500 м, и нет кучево-дождевой облачности

TAF: ESNK 131430Z 1315/1318 17010KT CAVOK

Метеонаблюдения и прогнозы для более 4000 аэропортов (сводки METAR и TAF).

Имеющиеся станции представлены на карте желтыми и красными точками.

Чтобы увидеть название станции, наведите на нее мышь.

Затем щелкните, чтобы увидеть метеонаблюдения и метеопрогнозы.

Управление картой: чтобы увеличить масштаб, щелкните зеленые кнопки с черным крестиком; чтобы уменьшить масштаб, щелкните зеленую кнопку с тире; для просмотра соседних карт щелкайте зеленые стрелки.


METAR-TAF: